sensor_id;sensor_type;location;lat;lon;timestamp;P1;durP1;ratioP1;P2;durP2;ratioP2
41568;SDS011;27283;52.504;13.358;2022-10-16T00:00:52;5.60;;;3.00;;
41568;SDS011;27283;52.504;13.358;2022-10-16T00:03:34;5.45;;;3.00;;
41568;SDS011;27283;52.504;13.358;2022-10-16T00:06:06;3.33;;;2.80;;
41568;SDS011;27283;52.504;13.358;2022-10-16T00:08:40;4.32;;;2.80;;
41568;SDS011;27283;52.504;13.358;2022-10-16T00:11:13;3.88;;;2.75;;
41568;SDS011;27283;52.504;13.358;2022-10-16T00:13:47;4.13;;;3.10;;
41568;SDS011;27283;52.504;13.358;2022-10-16T00:16:23;3.30;;;2.70;;
41568;SDS011;27283;52.504;13.358;2022-10-16T00:19:24;7.00;;;3.22;;
41568;SDS011;27283;52.504;13.358;2022-10-16T00:21:56;3.45;;;2.60;;
41568;SDS011;27283;52.504;13.358;2022-10-16T00:24:31;4.57;;;2.72;;
41568;SDS011;27283;52.504;13.358;2022-10-16T00:27:03;4.25;;;2.83;;
41568;SDS011;27283;52.504;13.358;2022-10-16T00:29:35;3.50;;;2.47;;
41568;SDS011;27283;52.504;13.358;2022-10-16T00:32:10;3.20;;;2.53;;
41568;SDS011;27283;52.504;13.358;2022-10-16T00:34:42;2.72;;;2.30;;
41568;SDS011;27283;52.504;13.358;2022-10-16T00:37:14;5.65;;;2.45;;
41568;SDS011;27283;52.504;13.358;2022-10-16T00:39:46;4.90;;;2.35;;
41568;SDS011;27283;52.504;13.358;2022-10-16T00:42:18;5.00;;;2.60;;
41568;SDS011;27283;52.504;13.358;2022-10-16T00:44:52;3.55;;;2.20;;
41568;SDS011;27283;52.504;13.358;2022-10-16T00:47:30;6.85;;;2.70;;
41568;SDS011;27283;52.504;13.358;2022-10-16T00:50:06;3.03;;;2.40;;
41568;SDS011;27283;52.504;13.358;2022-10-16T00:52:41;2.65;;;2.20;;
41568;SDS011;27283;52.504;13.358;2022-10-16T00:55:17;3.70;;;2.78;;
41568;SDS011;27283;52.504;13.358;2022-10-16T00:57:50;3.10;;;2.30;;
41568;SDS011;27283;52.504;13.358;2022-10-16T01:00:23;4.07;;;2.70;;
41568;SDS011;27283;52.504;13.358;2022-10-16T01:03:00;3.35;;;2.35;;
41568;SDS011;27283;52.504;13.358;2022-10-16T01:05:33;3.85;;;2.47;;
41568;SDS011;27283;52.504;13.358;2022-10-16T01:08:12;4.88;;;2.45;;
41568;SDS011;27283;52.504;13.358;2022-10-16T01:10:51;4.70;;;2.58;;
41568;SDS011;27283;52.504;13.358;2022-10-16T01:13:29;4.03;;;2.60;;
41568;SDS011;27283;52.504;13.358;2022-10-16T01:16:10;5.05;;;2.60;;
41568;SDS011;27283;52.504;13.358;2022-10-16T01:18:50;3.92;;;2.55;;
41568;SDS011;27283;52.504;13.358;2022-10-16T01:21:27;3.97;;;2.47;;
41568;SDS011;27283;52.504;13.358;2022-10-16T01:24:06;3.53;;;2.42;;
41568;SDS011;27283;52.504;13.358;2022-10-16T01:29:46;3.17;;;2.50;;
41568;SDS011;27283;52.504;13.358;2022-10-16T01:32:27;5.25;;;2.90;;
41568;SDS011;27283;52.504;13.358;2022-10-16T01:35:04;4.20;;;2.55;;
41568;SDS011;27283;52.504;13.358;2022-10-16T01:37:43;4.20;;;2.65;;
41568;SDS011;27283;52.504;13.358;2022-10-16T01:40:23;3.47;;;2.67;;
41568;SDS011;27283;52.504;13.358;2022-10-16T01:43:03;3.92;;;2.38;;
41568;SDS011;27283;52.504;13.358;2022-10-16T01:45:38;3.30;;;2.20;;
41568;SDS011;27283;52.504;13.358;2022-10-16T01:48:16;5.15;;;2.60;;
41568;SDS011;27283;52.504;13.358;2022-10-16T01:50:53;3.40;;;2.53;;
41568;SDS011;27283;52.504;13.358;2022-10-16T01:53:27;3.47;;;2.63;;
41568;SDS011;27283;52.504;13.358;2022-10-16T01:55:59;2.88;;;2.30;;
41568;SDS011;27283;52.504;13.358;2022-10-16T01:58:37;5.07;;;2.55;;
41568;SDS011;27283;52.504;13.358;2022-10-16T02:01:15;4.05;;;2.75;;
41568;SDS011;27283;52.504;13.358;2022-10-16T02:03:50;4.65;;;2.53;;
41568;SDS011;27283;52.504;13.358;2022-10-16T02:06:25;5.72;;;2.60;;
41568;SDS011;27283;52.504;13.358;2022-10-16T02:08:59;3.47;;;2.50;;
41568;SDS011;27283;52.504;13.358;2022-10-16T02:11:30;3.10;;;2.55;;
41568;SDS011;27283;52.504;13.358;2022-10-16T02:14:05;4.15;;;2.50;;
41568;SDS011;27283;52.504;13.358;2022-10-16T02:16:38;3.05;;;2.40;;
41568;SDS011;27283;52.504;13.358;2022-10-16T02:19:11;5.25;;;2.40;;
41568;SDS011;27283;52.504;13.358;2022-10-16T02:21:47;4.43;;;2.80;;
41568;SDS011;27283;52.504;13.358;2022-10-16T02:24:23;3.58;;;2.70;;
41568;SDS011;27283;52.504;13.358;2022-10-16T02:27:03;4.70;;;2.60;;
41568;SDS011;27283;52.504;13.358;2022-10-16T02:29:42;3.92;;;2.50;;
41568;SDS011;27283;52.504;13.358;2022-10-16T02:32:21;3.30;;;2.58;;
41568;SDS011;27283;52.504;13.358;2022-10-16T02:34:55;5.93;;;2.50;;
41568;SDS011;27283;52.504;13.358;2022-10-16T02:37:30;2.67;;;2.30;;
41568;SDS011;27283;52.504;13.358;2022-10-16T02:40:02;2.88;;;2.30;;
41568;SDS011;27283;52.504;13.358;2022-10-16T02:42:40;3.75;;;2.50;;
41568;SDS011;27283;52.504;13.358;2022-10-16T02:45:16;2.67;;;2.33;;
41568;SDS011;27283;52.504;13.358;2022-10-16T02:47:47;3.38;;;2.42;;
41568;SDS011;27283;52.504;13.358;2022-10-16T02:50:18;3.45;;;2.30;;
41568;SDS011;27283;52.504;13.358;2022-10-16T02:52:49;3.97;;;2.20;;
41568;SDS011;27283;52.504;13.358;2022-10-16T02:55:20;3.55;;;2.50;;
41568;SDS011;27283;52.504;13.358;2022-10-16T02:57:51;2.80;;;2.40;;
41568;SDS011;27283;52.504;13.358;2022-10-16T03:00:25;4.57;;;2.67;;
41568;SDS011;27283;52.504;13.358;2022-10-16T03:02:55;5.35;;;2.50;;
41568;SDS011;27283;52.504;13.358;2022-10-16T03:05:26;4.20;;;2.60;;
41568;SDS011;27283;52.504;13.358;2022-10-16T03:07:57;5.47;;;2.80;;
41568;SDS011;27283;52.504;13.358;2022-10-16T03:10:29;5.22;;;2.35;;
41568;SDS011;27283;52.504;13.358;2022-10-16T03:13:01;4.55;;;2.85;;
41568;SDS011;27283;52.504;13.358;2022-10-16T03:15:34;3.67;;;2.83;;
41568;SDS011;27283;52.504;13.358;2022-10-16T03:18:07;4.80;;;3.13;;
41568;SDS011;27283;52.504;13.358;2022-10-16T03:20:38;3.42;;;2.88;;
41568;SDS011;27283;52.504;13.358;2022-10-16T03:23:09;4.32;;;2.92;;
41568;SDS011;27283;52.504;13.358;2022-10-16T03:25:40;6.10;;;2.80;;
41568;SDS011;27283;52.504;13.358;2022-10-16T03:28:14;5.72;;;2.92;;
41568;SDS011;27283;52.504;13.358;2022-10-16T03:30:48;4.28;;;2.95;;
41568;SDS011;27283;52.504;13.358;2022-10-16T03:33:20;4.90;;;3.05;;
41568;SDS011;27283;52.504;13.358;2022-10-16T03:35:51;5.15;;;3.38;;
41568;SDS011;27283;52.504;13.358;2022-10-16T03:38:23;5.95;;;3.17;;
41568;SDS011;27283;52.504;13.358;2022-10-16T03:40:54;4.47;;;3.30;;
41568;SDS011;27283;52.504;13.358;2022-10-16T03:43:25;3.25;;;2.88;;
41568;SDS011;27283;52.504;13.358;2022-10-16T03:45:58;5.50;;;3.10;;
41568;SDS011;27283;52.504;13.358;2022-10-16T03:48:29;7.05;;;2.90;;
41568;SDS011;27283;52.504;13.358;2022-10-16T03:51:01;4.38;;;3.38;;
41568;SDS011;27283;52.504;13.358;2022-10-16T03:53:32;5.45;;;3.00;;
41568;SDS011;27283;52.504;13.358;2022-10-16T03:56:05;4.13;;;3.03;;
41568;SDS011;27283;52.504;13.358;2022-10-16T03:58:38;4.28;;;3.28;;
41568;SDS011;27283;52.504;13.358;2022-10-16T04:01:12;5.50;;;3.30;;
41568;SDS011;27283;52.504;13.358;2022-10-16T04:03:45;5.63;;;3.22;;
41568;SDS011;27283;52.504;13.358;2022-10-16T04:06:17;3.85;;;3.17;;
41568;SDS011;27283;52.504;13.358;2022-10-16T04:08:48;3.80;;;2.97;;
41568;SDS011;27283;52.504;13.358;2022-10-16T04:11:22;6.03;;;3.35;;
41568;SDS011;27283;52.504;13.358;2022-10-16T04:13:53;4.68;;;3.63;;
41568;SDS011;27283;52.504;13.358;2022-10-16T04:16:28;5.00;;;3.30;;
41568;SDS011;27283;52.504;13.358;2022-10-16T04:18:59;5.03;;;3.20;;
41568;SDS011;27283;52.504;13.358;2022-10-16T04:21:33;4.32;;;3.50;;
41568;SDS011;27283;52.504;13.358;2022-10-16T04:24:04;4.82;;;3.20;;
41568;SDS011;27283;52.504;13.358;2022-10-16T04:26:38;6.35;;;3.22;;
41568;SDS011;27283;52.504;13.358;2022-10-16T04:29:08;5.15;;;3.30;;
41568;SDS011;27283;52.504;13.358;2022-10-16T04:31:42;4.03;;;3.03;;
41568;SDS011;27283;52.504;13.358;2022-10-16T04:34:14;5.90;;;3.35;;
41568;SDS011;27283;52.504;13.358;2022-10-16T04:36:46;4.78;;;3.38;;
41568;SDS011;27283;52.504;13.358;2022-10-16T04:39:18;3.90;;;3.08;;
41568;SDS011;27283;52.504;13.358;2022-10-16T04:41:49;6.38;;;3.25;;
41568;SDS011;27283;52.504;13.358;2022-10-16T04:44:20;6.57;;;3.80;;
41568;SDS011;27283;52.504;13.358;2022-10-16T04:46:54;4.63;;;3.22;;
41568;SDS011;27283;52.504;13.358;2022-10-16T04:49:26;8.50;;;3.90;;
41568;SDS011;27283;52.504;13.358;2022-10-16T04:51:57;4.15;;;3.05;;
41568;SDS011;27283;52.504;13.358;2022-10-16T04:54:29;5.78;;;3.55;;
41568;SDS011;27283;52.504;13.358;2022-10-16T04:57:00;5.03;;;3.47;;
41568;SDS011;27283;52.504;13.358;2022-10-16T04:59:32;6.47;;;3.58;;
41568;SDS011;27283;52.504;13.358;2022-10-16T05:02:07;8.50;;;3.95;;
41568;SDS011;27283;52.504;13.358;2022-10-16T05:04:38;5.43;;;4.05;;
41568;SDS011;27283;52.504;13.358;2022-10-16T05:07:10;6.07;;;3.83;;
41568;SDS011;27283;52.504;13.358;2022-10-16T05:09:41;5.32;;;4.22;;
41568;SDS011;27283;52.504;13.358;2022-10-16T05:12:13;7.43;;;3.92;;
41568;SDS011;27283;52.504;13.358;2022-10-16T05:14:44;5.10;;;3.63;;
41568;SDS011;27283;52.504;13.358;2022-10-16T05:17:18;5.90;;;4.10;;
41568;SDS011;27283;52.504;13.358;2022-10-16T05:19:50;8.45;;;4.20;;
41568;SDS011;27283;52.504;13.358;2022-10-16T05:22:21;5.85;;;4.05;;
41568;SDS011;27283;52.504;13.358;2022-10-16T05:24:52;5.53;;;3.42;;
41568;SDS011;27283;52.504;13.358;2022-10-16T05:27:23;6.07;;;3.63;;
41568;SDS011;27283;52.504;13.358;2022-10-16T05:29:55;5.63;;;3.70;;
41568;SDS011;27283;52.504;13.358;2022-10-16T05:32:28;4.40;;;3.22;;
41568;SDS011;27283;52.504;13.358;2022-10-16T05:34:59;5.78;;;3.47;;
41568;SDS011;27283;52.504;13.358;2022-10-16T05:37:33;5.18;;;3.45;;
41568;SDS011;27283;52.504;13.358;2022-10-16T05:40:04;7.30;;;3.45;;
41568;SDS011;27283;52.504;13.358;2022-10-16T05:42:35;4.82;;;3.40;;
41568;SDS011;27283;52.504;13.358;2022-10-16T05:45:07;4.47;;;3.50;;
41568;SDS011;27283;52.504;13.358;2022-10-16T05:47:42;5.53;;;3.50;;
41568;SDS011;27283;52.504;13.358;2022-10-16T05:50:13;7.13;;;4.00;;
41568;SDS011;27283;52.504;13.358;2022-10-16T05:52:44;5.78;;;3.97;;
41568;SDS011;27283;52.504;13.358;2022-10-16T05:55:15;8.07;;;3.63;;
41568;SDS011;27283;52.504;13.358;2022-10-16T05:57:46;6.88;;;4.03;;
41568;SDS011;27283;52.504;13.358;2022-10-16T06:00:17;5.22;;;3.95;;
41568;SDS011;27283;52.504;13.358;2022-10-16T06:02:50;6.65;;;4.10;;
41568;SDS011;27283;52.504;13.358;2022-10-16T06:05:21;8.30;;;3.85;;
41568;SDS011;27283;52.504;13.358;2022-10-16T06:07:52;5.47;;;3.95;;
41568;SDS011;27283;52.504;13.358;2022-10-16T06:10:25;5.95;;;3.85;;
41568;SDS011;27283;52.504;13.358;2022-10-16T06:12:56;4.57;;;3.78;;
41568;SDS011;27283;52.504;13.358;2022-10-16T06:15:32;5.45;;;3.95;;
41568;SDS011;27283;52.504;13.358;2022-10-16T06:18:06;4.97;;;3.75;;
41568;SDS011;27283;52.504;13.358;2022-10-16T06:20:38;4.63;;;3.55;;
41568;SDS011;27283;52.504;13.358;2022-10-16T06:23:09;8.00;;;3.92;;
41568;SDS011;27283;52.504;13.358;2022-10-16T06:25:40;6.78;;;3.85;;
41568;SDS011;27283;52.504;13.358;2022-10-16T06:28:13;5.85;;;3.70;;
41568;SDS011;27283;52.504;13.358;2022-10-16T06:30:44;5.53;;;3.75;;
41568;SDS011;27283;52.504;13.358;2022-10-16T06:33:18;7.10;;;3.88;;
41568;SDS011;27283;52.504;13.358;2022-10-16T06:35:49;7.63;;;3.85;;
41568;SDS011;27283;52.504;13.358;2022-10-16T06:38:20;6.85;;;3.60;;
41568;SDS011;27283;52.504;13.358;2022-10-16T06:40:53;6.80;;;3.67;;
41568;SDS011;27283;52.504;13.358;2022-10-16T06:43:24;5.15;;;3.53;;
41568;SDS011;27283;52.504;13.358;2022-10-16T06:45:56;5.55;;;3.40;;
41568;SDS011;27283;52.504;13.358;2022-10-16T06:48:30;5.32;;;3.65;;
41568;SDS011;27283;52.504;13.358;2022-10-16T06:51:02;5.53;;;3.88;;
41568;SDS011;27283;52.504;13.358;2022-10-16T06:53:36;4.72;;;3.40;;
41568;SDS011;27283;52.504;13.358;2022-10-16T06:56:30;7.20;;;3.17;;
41568;SDS011;27283;52.504;13.358;2022-10-16T06:59:02;4.30;;;3.03;;
41568;SDS011;27283;52.504;13.358;2022-10-16T07:01:34;6.68;;;3.83;;
41568;SDS011;27283;52.504;13.358;2022-10-16T07:04:08;5.40;;;3.10;;
41568;SDS011;27283;52.504;13.358;2022-10-16T07:06:38;6.60;;;3.13;;
41568;SDS011;27283;52.504;13.358;2022-10-16T07:09:10;5.05;;;3.50;;
41568;SDS011;27283;52.504;13.358;2022-10-16T07:11:42;4.90;;;3.03;;
41568;SDS011;27283;52.504;13.358;2022-10-16T07:14:15;4.95;;;3.58;;
41568;SDS011;27283;52.504;13.358;2022-10-16T07:16:47;4.85;;;3.13;;
41568;SDS011;27283;52.504;13.358;2022-10-16T07:19:23;4.07;;;2.83;;
41568;SDS011;27283;52.504;13.358;2022-10-16T07:21:58;3.58;;;2.92;;
41568;SDS011;27283;52.504;13.358;2022-10-16T07:24:30;5.85;;;2.92;;
41568;SDS011;27283;52.504;13.358;2022-10-16T07:27:01;4.63;;;2.60;;
41568;SDS011;27283;52.504;13.358;2022-10-16T07:29:32;4.57;;;2.88;;
41568;SDS011;27283;52.504;13.358;2022-10-16T07:32:03;3.45;;;2.30;;
41568;SDS011;27283;52.504;13.358;2022-10-16T07:34:37;3.83;;;2.35;;
41568;SDS011;27283;52.504;13.358;2022-10-16T07:37:09;3.67;;;2.17;;
41568;SDS011;27283;52.504;13.358;2022-10-16T07:39:40;4.22;;;2.55;;
41568;SDS011;27283;52.504;13.358;2022-10-16T07:42:11;3.70;;;2.50;;
41568;SDS011;27283;52.504;13.358;2022-10-16T07:44:42;3.25;;;2.30;;
41568;SDS011;27283;52.504;13.358;2022-10-16T07:47:13;4.50;;;2.50;;
41568;SDS011;27283;52.504;13.358;2022-10-16T07:49:46;6.95;;;2.13;;
41568;SDS011;27283;52.504;13.358;2022-10-16T07:52:17;3.42;;;2.20;;
41568;SDS011;27283;52.504;13.358;2022-10-16T07:54:48;5.78;;;2.40;;
41568;SDS011;27283;52.504;13.358;2022-10-16T07:57:19;4.05;;;2.35;;
41568;SDS011;27283;52.504;13.358;2022-10-16T07:59:51;3.05;;;2.03;;
41568;SDS011;27283;52.504;13.358;2022-10-16T08:02:22;3.42;;;2.20;;
41568;SDS011;27283;52.504;13.358;2022-10-16T08:04:55;4.13;;;2.40;;
41568;SDS011;27283;52.504;13.358;2022-10-16T08:07:26;4.68;;;2.50;;
41568;SDS011;27283;52.504;13.358;2022-10-16T08:09:57;4.78;;;2.40;;
41568;SDS011;27283;52.504;13.358;2022-10-16T08:12:28;3.30;;;2.33;;
41568;SDS011;27283;52.504;13.358;2022-10-16T08:15:01;4.18;;;2.33;;
41568;SDS011;27283;52.504;13.358;2022-10-16T08:17:31;5.32;;;2.25;;
41568;SDS011;27283;52.504;13.358;2022-10-16T08:20:05;4.32;;;2.20;;
41568;SDS011;27283;52.504;13.358;2022-10-16T08:22:37;2.97;;;2.25;;
41568;SDS011;27283;52.504;13.358;2022-10-16T08:25:08;3.45;;;2.20;;
41568;SDS011;27283;52.504;13.358;2022-10-16T08:27:39;7.32;;;2.38;;
41568;SDS011;27283;52.504;13.358;2022-10-16T08:30:10;2.95;;;2.20;;
41568;SDS011;27283;52.504;13.358;2022-10-16T08:32:41;4.82;;;2.28;;
41568;SDS011;27283;52.504;13.358;2022-10-16T08:35:15;4.43;;;2.38;;
41568;SDS011;27283;52.504;13.358;2022-10-16T08:37:47;4.30;;;2.00;;
41568;SDS011;27283;52.504;13.358;2022-10-16T08:40:18;2.92;;;2.15;;
41568;SDS011;27283;52.504;13.358;2022-10-16T08:45:51;3.70;;;1.70;;
41568;SDS011;27283;52.504;13.358;2022-10-16T08:48:35;3.40;;;1.70;;
41568;SDS011;27283;52.504;13.358;2022-10-16T08:51:18;3.25;;;1.88;;
41568;SDS011;27283;52.504;13.358;2022-10-16T08:53:52;2.53;;;1.90;;
41568;SDS011;27283;52.504;13.358;2022-10-16T08:56:26;1.85;;;1.63;;
41568;SDS011;27283;52.504;13.358;2022-10-16T08:58:58;5.70;;;2.13;;
41568;SDS011;27283;52.504;13.358;2022-10-16T09:01:35;4.18;;;1.73;;
41568;SDS011;27283;52.504;13.358;2022-10-16T09:04:22;3.80;;;2.00;;
41568;SDS011;27283;52.504;13.358;2022-10-16T09:07:27;3.33;;;1.85;;
41568;SDS011;27283;52.504;13.358;2022-10-16T09:10:10;3.25;;;1.70;;
41568;SDS011;27283;52.504;13.358;2022-10-16T09:12:58;3.35;;;1.85;;
41568;SDS011;27283;52.504;13.358;2022-10-16T09:15:41;3.08;;;1.92;;
41568;SDS011;27283;52.504;13.358;2022-10-16T09:18:19;2.70;;;1.90;;
41568;SDS011;27283;52.504;13.358;2022-10-16T09:21:01;3.05;;;2.05;;
41568;SDS011;27283;52.504;13.358;2022-10-16T09:23:45;4.72;;;1.98;;
41568;SDS011;27283;52.504;13.358;2022-10-16T09:26:17;2.95;;;1.60;;
41568;SDS011;27283;52.504;13.358;2022-10-16T09:28:52;2.35;;;1.50;;
41568;SDS011;27283;52.504;13.358;2022-10-16T09:31:23;4.25;;;1.55;;
41568;SDS011;27283;52.504;13.358;2022-10-16T09:33:55;1.67;;;1.50;;
41568;SDS011;27283;52.504;13.358;2022-10-16T09:36:33;3.10;;;1.38;;
41568;SDS011;27283;52.504;13.358;2022-10-16T09:39:14;3.10;;;1.83;;
41568;SDS011;27283;52.504;13.358;2022-10-16T09:41:45;4.30;;;1.63;;
41568;SDS011;27283;52.504;13.358;2022-10-16T09:44:19;2.78;;;1.80;;
41568;SDS011;27283;52.504;13.358;2022-10-16T09:47:01;4.28;;;1.50;;
41568;SDS011;27283;52.504;13.358;2022-10-16T09:49:33;3.85;;;1.90;;
41568;SDS011;27283;52.504;13.358;2022-10-16T09:52:09;3.90;;;1.90;;
41568;SDS011;27283;52.504;13.358;2022-10-16T09:54:51;3.50;;;1.40;;
41568;SDS011;27283;52.504;13.358;2022-10-16T09:57:23;3.58;;;1.60;;
41568;SDS011;27283;52.504;13.358;2022-10-16T09:59:58;3.95;;;1.58;;
41568;SDS011;27283;52.504;13.358;2022-10-16T10:02:30;4.03;;;1.50;;
41568;SDS011;27283;52.504;13.358;2022-10-16T10:05:06;2.67;;;1.48;;
41568;SDS011;27283;52.504;13.358;2022-10-16T10:07:53;3.42;;;1.30;;
41568;SDS011;27283;52.504;13.358;2022-10-16T10:10:30;2.20;;;1.45;;
41568;SDS011;27283;52.504;13.358;2022-10-16T10:13:04;3.28;;;1.70;;
41568;SDS011;27283;52.504;13.358;2022-10-16T10:15:35;6.43;;;2.28;;
41568;SDS011;27283;52.504;13.358;2022-10-16T10:18:16;3.53;;;2.00;;
41568;SDS011;27283;52.504;13.358;2022-10-16T10:20:57;4.10;;;1.95;;
41568;SDS011;27283;52.504;13.358;2022-10-16T10:23:29;3.20;;;1.25;;
41568;SDS011;27283;52.504;13.358;2022-10-16T10:26:04;4.45;;;1.50;;
41568;SDS011;27283;52.504;13.358;2022-10-16T10:28:46;2.70;;;2.00;;
41568;SDS011;27283;52.504;13.358;2022-10-16T10:31:27;1.88;;;1.15;;
41568;SDS011;27283;52.504;13.358;2022-10-16T10:34:11;3.75;;;1.40;;
41568;SDS011;27283;52.504;13.358;2022-10-16T10:36:59;4.85;;;1.70;;
41568;SDS011;27283;52.504;13.358;2022-10-16T10:39:42;3.17;;;1.30;;
41568;SDS011;27283;52.504;13.358;2022-10-16T10:42:25;3.38;;;1.30;;
41568;SDS011;27283;52.504;13.358;2022-10-16T10:45:11;2.70;;;1.30;;
41568;SDS011;27283;52.504;13.358;2022-10-16T10:47:54;4.25;;;1.88;;
41568;SDS011;27283;52.504;13.358;2022-10-16T10:50:39;2.13;;;1.30;;
41568;SDS011;27283;52.504;13.358;2022-10-16T10:53:18;1.75;;;1.40;;
41568;SDS011;27283;52.504;13.358;2022-10-16T10:56:04;2.83;;;1.30;;
41568;SDS011;27283;52.504;13.358;2022-10-16T11:01:53;4.05;;;1.40;;
41568;SDS011;27283;52.504;13.358;2022-10-16T11:04:39;3.08;;;1.45;;
41568;SDS011;27283;52.504;13.358;2022-10-16T11:07:25;1.95;;;1.15;;
41568;SDS011;27283;52.504;13.358;2022-10-16T11:10:03;2.13;;;1.00;;
41568;SDS011;27283;52.504;13.358;2022-10-16T11:12:41;2.65;;;1.17;;
41568;SDS011;27283;52.504;13.358;2022-10-16T11:15:20;3.08;;;1.60;;
41568;SDS011;27283;52.504;13.358;2022-10-16T11:17:57;4.13;;;1.08;;
41568;SDS011;27283;52.504;13.358;2022-10-16T11:20:37;2.70;;;1.20;;
41568;SDS011;27283;52.504;13.358;2022-10-16T11:23:14;2.40;;;1.50;;
41568;SDS011;27283;52.504;13.358;2022-10-16T11:25:52;3.05;;;1.20;;
41568;SDS011;27283;52.504;13.358;2022-10-16T11:28:27;2.60;;;1.17;;
41568;SDS011;27283;52.504;13.358;2022-10-16T11:31:08;4.13;;;1.25;;
41568;SDS011;27283;52.504;13.358;2022-10-16T11:33:46;3.35;;;1.13;;
41568;SDS011;27283;52.504;13.358;2022-10-16T11:36:23;2.45;;;0.93;;
41568;SDS011;27283;52.504;13.358;2022-10-16T11:39:03;2.08;;;1.00;;
41568;SDS011;27283;52.504;13.358;2022-10-16T11:41:43;2.80;;;1.00;;
41568;SDS011;27283;52.504;13.358;2022-10-16T11:44:35;2.35;;;1.00;;
41568;SDS011;27283;52.504;13.358;2022-10-16T11:47:19;1.55;;;0.90;;
41568;SDS011;27283;52.504;13.358;2022-10-16T11:50:26;2.47;;;0.95;;
41568;SDS011;27283;52.504;13.358;2022-10-16T11:53:04;2.20;;;0.90;;
41568;SDS011;27283;52.504;13.358;2022-10-16T11:55:44;2.08;;;1.52;;
41568;SDS011;27283;52.504;13.358;2022-10-16T11:58:23;1.70;;;0.98;;
41568;SDS011;27283;52.504;13.358;2022-10-16T12:00:59;2.15;;;1.20;;
41568;SDS011;27283;52.504;13.358;2022-10-16T12:03:44;2.28;;;0.90;;
41568;SDS011;27283;52.504;13.358;2022-10-16T12:06:27;3.35;;;1.00;;
41568;SDS011;27283;52.504;13.358;2022-10-16T12:09:09;1.80;;;0.80;;
41568;SDS011;27283;52.504;13.358;2022-10-16T12:11:46;2.35;;;0.95;;
41568;SDS011;27283;52.504;13.358;2022-10-16T12:14:33;2.30;;;1.10;;
41568;SDS011;27283;52.504;13.358;2022-10-16T12:17:33;3.60;;;1.30;;
41568;SDS011;27283;52.504;13.358;2022-10-16T12:23:00;2.00;;;1.00;;
41568;SDS011;27283;52.504;13.358;2022-10-16T12:25:34;3.33;;;1.38;;
41568;SDS011;27283;52.504;13.358;2022-10-16T12:28:17;1.60;;;0.90;;
41568;SDS011;27283;52.504;13.358;2022-10-16T12:30:52;2.75;;;1.13;;
41568;SDS011;27283;52.504;13.358;2022-10-16T12:33:26;1.52;;;0.80;;
41568;SDS011;27283;52.504;13.358;2022-10-16T12:36:03;1.83;;;0.90;;
41568;SDS011;27283;52.504;13.358;2022-10-16T12:38:45;2.20;;;0.77;;
41568;SDS011;27283;52.504;13.358;2022-10-16T12:41:24;4.32;;;1.30;;
41568;SDS011;27283;52.504;13.358;2022-10-16T12:43:57;4.22;;;1.95;;
41568;SDS011;27283;52.504;13.358;2022-10-16T12:46:35;3.15;;;1.02;;
41568;SDS011;27283;52.504;13.358;2022-10-16T12:49:29;1.38;;;0.90;;
41568;SDS011;27283;52.504;13.358;2022-10-16T12:54:59;2.28;;;0.98;;
41568;SDS011;27283;52.504;13.358;2022-10-16T12:57:34;2.50;;;0.90;;
41568;SDS011;27283;52.504;13.358;2022-10-16T13:00:20;3.15;;;0.80;;
41568;SDS011;27283;52.504;13.358;2022-10-16T13:03:01;2.22;;;1.00;;
41568;SDS011;27283;52.504;13.358;2022-10-16T13:06:02;1.45;;;0.80;;
41568;SDS011;27283;52.504;13.358;2022-10-16T13:08:52;2.05;;;0.88;;
41568;SDS011;27283;52.504;13.358;2022-10-16T13:14:57;1.70;;;0.90;;
41568;SDS011;27283;52.504;13.358;2022-10-16T13:17:46;1.50;;;0.90;;
41568;SDS011;27283;52.504;13.358;2022-10-16T13:20:27;2.13;;;1.00;;
41568;SDS011;27283;52.504;13.358;2022-10-16T13:23:07;2.42;;;1.00;;
41568;SDS011;27283;52.504;13.358;2022-10-16T13:25:53;3.35;;;1.00;;
41568;SDS011;27283;52.504;13.358;2022-10-16T13:28:37;3.85;;;1.63;;
41568;SDS011;27283;52.504;13.358;2022-10-16T13:31:12;1.58;;;0.70;;
41568;SDS011;27283;52.504;13.358;2022-10-16T13:33:48;6.70;;;0.90;;
41568;SDS011;27283;52.504;13.358;2022-10-16T13:36:23;2.42;;;0.80;;
41568;SDS011;27283;52.504;13.358;2022-10-16T13:39:00;3.42;;;0.90;;
41568;SDS011;27283;52.504;13.358;2022-10-16T13:41:41;0.88;;;0.70;;
41568;SDS011;27283;52.504;13.358;2022-10-16T13:44:14;3.35;;;0.90;;
41568;SDS011;27283;52.504;13.358;2022-10-16T13:46:57;2.13;;;0.85;;
41568;SDS011;27283;52.504;13.358;2022-10-16T13:49:29;1.33;;;1.00;;
41568;SDS011;27283;52.504;13.358;2022-10-16T13:52:00;1.88;;;0.82;;
41568;SDS011;27283;52.504;13.358;2022-10-16T13:54:31;1.52;;;1.00;;
41568;SDS011;27283;52.504;13.358;2022-10-16T13:57:07;4.45;;;1.10;;
41568;SDS011;27283;52.504;13.358;2022-10-16T13:59:53;2.50;;;1.20;;
41568;SDS011;27283;52.504;13.358;2022-10-16T14:02:25;2.97;;;1.50;;
41568;SDS011;27283;52.504;13.358;2022-10-16T14:05:02;3.30;;;1.52;;
41568;SDS011;27283;52.504;13.358;2022-10-16T14:07:39;3.28;;;1.40;;
41568;SDS011;27283;52.504;13.358;2022-10-16T14:10:18;3.65;;;1.88;;
41568;SDS011;27283;52.504;13.358;2022-10-16T14:13:02;4.60;;;1.95;;
41568;SDS011;27283;52.504;13.358;2022-10-16T14:15:36;2.15;;;1.20;;
41568;SDS011;27283;52.504;13.358;2022-10-16T14:18:13;2.90;;;1.48;;
41568;SDS011;27283;52.504;13.358;2022-10-16T14:20:49;4.63;;;2.40;;
41568;SDS011;27283;52.504;13.358;2022-10-16T14:23:28;7.82;;;4.03;;
41568;SDS011;27283;52.504;13.358;2022-10-16T14:26:12;3.33;;;1.50;;
41568;SDS011;27283;52.504;13.358;2022-10-16T14:28:48;3.15;;;1.65;;
41568;SDS011;27283;52.504;13.358;2022-10-16T14:31:31;3.05;;;2.20;;
41568;SDS011;27283;52.504;13.358;2022-10-16T14:34:04;4.32;;;2.22;;
41568;SDS011;27283;52.504;13.358;2022-10-16T14:36:51;5.32;;;3.00;;
41568;SDS011;27283;52.504;13.358;2022-10-16T14:39:23;1.75;;;1.15;;
41568;SDS011;27283;52.504;13.358;2022-10-16T14:41:56;3.72;;;1.40;;
41568;SDS011;27283;52.504;13.358;2022-10-16T14:44:32;3.17;;;1.30;;
41568;SDS011;27283;52.504;13.358;2022-10-16T14:47:07;7.25;;;2.13;;
41568;SDS011;27283;52.504;13.358;2022-10-16T14:49:50;3.38;;;1.58;;
41568;SDS011;27283;52.504;13.358;2022-10-16T14:52:22;2.72;;;1.27;;
41568;SDS011;27283;52.504;13.358;2022-10-16T14:54:56;3.80;;;1.73;;
41568;SDS011;27283;52.504;13.358;2022-10-16T14:57:27;1.77;;;1.20;;
41568;SDS011;27283;52.504;13.358;2022-10-16T15:00:13;2.40;;;1.05;;
41568;SDS011;27283;52.504;13.358;2022-10-16T15:02:50;3.33;;;1.10;;
41568;SDS011;27283;52.504;13.358;2022-10-16T15:05:25;2.58;;;1.00;;
41568;SDS011;27283;52.504;13.358;2022-10-16T15:07:59;2.50;;;0.93;;
41568;SDS011;27283;52.504;13.358;2022-10-16T15:10:33;2.28;;;1.00;;
41568;SDS011;27283;52.504;13.358;2022-10-16T15:13:11;1.58;;;1.10;;
41568;SDS011;27283;52.504;13.358;2022-10-16T15:15:46;2.20;;;1.00;;
41568;SDS011;27283;52.504;13.358;2022-10-16T15:18:17;1.65;;;0.98;;
41568;SDS011;27283;52.504;13.358;2022-10-16T15:20:50;4.20;;;1.23;;
41568;SDS011;27283;52.504;13.358;2022-10-16T15:23:24;2.00;;;1.10;;
41568;SDS011;27283;52.504;13.358;2022-10-16T15:25:56;4.78;;;1.30;;
41568;SDS011;27283;52.504;13.358;2022-10-16T15:28:27;2.42;;;1.20;;
41568;SDS011;27283;52.504;13.358;2022-10-16T15:31:01;3.85;;;1.10;;
41568;SDS011;27283;52.504;13.358;2022-10-16T15:33:35;2.10;;;1.05;;
41568;SDS011;27283;52.504;13.358;2022-10-16T15:36:07;2.70;;;1.13;;
41568;SDS011;27283;52.504;13.358;2022-10-16T15:38:38;2.25;;;1.20;;
41568;SDS011;27283;52.504;13.358;2022-10-16T15:41:10;5.13;;;2.20;;